Time;durP1;ratioP1;P1;durP2;ratioP2;P2;SDS_P1;SDS_P2;PMS_P1;PMS_P2;Temp;Humidity;BMP_temperature;BMP_pressure;BME280_temperature;BME280_humidity;BME280_pressure;Samples;Min_cycle;Max_cycle;Signal;HPM_P1;HPM_P2
2021/06/11 00:01:04;;;;;;;20.75;10.02;;;15.90;57.90;;;;;;4977584;28;20057;-89
2021/06/11 00:03:29;;;;;;;21.83;9.45;;;15.90;58.00;;;;;;4977554;28;20392;-89
2021/06/11 00:05:55;;;;;;;21.27;8.95;;;15.90;58.00;;;;;;4977920;28;20031;-89
2021/06/11 00:08:21;;;;;;;21.45;9.80;;;15.80;57.90;;;;;;4980431;28;20060;-90
2021/06/11 00:10:47;;;;;;;19.50;9.23;;;15.70;57.90;;;;;;4977468;28;20546;-90
2021/06/11 00:13:13;;;;;;;19.95;10.10;;;15.70;58.10;;;;;;4977322;28;20033;-90
2021/06/11 00:15:39;;;;;;;20.98;9.25;;;15.60;58.10;;;;;;4976823;28;20038;-90
2021/06/11 00:18:04;;;;;;;19.92;9.60;;;15.60;58.30;;;;;;4977648;28;20052;-91
2021/06/11 00:20:30;;;;;;;22.58;10.35;;;15.60;58.30;;;;;;4977354;28;20023;-93
2021/06/11 00:22:56;;;;;;;21.45;10.27;;;15.60;58.40;;;;;;4977571;28;20023;-93
2021/06/11 00:25:24;;;;;;;32.35;11.70;;;15.50;58.60;;;;;;4978004;28;20030;-91
2021/06/11 00:27:54;;;;;;;25.00;10.82;;;15.50;58.70;;;;;;4977621;28;20101;-92
2021/06/11 00:30:21;;;;;;;28.77;11.95;;;15.50;58.90;;;;;;4977519;28;20026;-92
2021/06/11 00:32:47;;;;;;;27.73;11.82;;;15.50;58.90;;;;;;4977550;28;20088;-92
2021/06/11 00:35:13;;;;;;;34.28;12.80;;;15.60;59.10;;;;;;4977655;28;20030;-93
2021/06/11 00:37:39;;;;;;;32.28;11.93;;;15.50;59.20;;;;;;4977851;28;20030;-93
2021/06/11 00:40:08;;;;;;;30.08;12.40;;;15.60;59.40;;;;;;4977628;28;20034;-92
2021/06/11 00:42:34;;;;;;;34.25;11.65;;;15.60;59.40;;;;;;4976348;28;20019;-91
2021/06/11 00:45:01;;;;;;;39.70;14.23;;;15.60;59.50;;;;;;4975910;28;20441;-92
2021/06/11 00:47:27;;;;;;;42.72;14.32;;;15.70;59.80;;;;;;4981689;28;20069;-91
2021/06/11 00:49:53;;;;;;;44.55;14.70;;;15.70;59.90;;;;;;4973751;28;20043;-91
2021/06/11 00:52:19;;;;;;;42.38;13.85;;;15.80;60.00;;;;;;4973786;28;20106;-91
2021/06/11 00:54:45;;;;;;;47.28;15.40;;;15.90;60.20;;;;;;4974064;28;20062;-92
2021/06/11 00:57:12;;;;;;;54.22;17.75;;;15.90;60.20;;;;;;4974103;28;20110;-91
2021/06/11 00:59:40;;;;;;;69.40;18.48;;;16.00;60.20;;;;;;4973879;28;20027;-91
2021/06/11 01:02:07;;;;;;;62.60;18.65;;;16.00;60.30;;;;;;4973893;28;20022;-92
2021/06/11 01:04:33;;;;;;;60.67;17.75;;;16.10;60.30;;;;;;4974377;28;20027;-91
2021/06/11 01:06:58;;;;;;;56.08;16.55;;;16.00;60.30;;;;;;4973647;28;20030;-91
2021/06/11 01:09:25;;;;;;;64.88;17.48;;;16.00;60.40;;;;;;4973261;28;20029;-89
2021/06/11 01:11:51;;;;;;;56.05;16.20;;;16.10;60.70;;;;;;4972834;28;20058;-88
2021/06/11 01:14:17;;;;;;;38.40;13.95;;;16.10;60.60;;;;;;4989470;28;20069;-89
2021/06/11 01:16:43;;;;;;;34.65;12.65;;;16.10;60.60;;;;;;4972843;28;20023;-89
2021/06/11 01:19:11;;;;;;;35.92;13.13;;;16.20;60.90;;;;;;4973843;28;20024;-91
2021/06/11 01:21:45;;;;;;;41.47;13.27;;;16.20;60.90;;;;;;4973773;28;20064;-92
2021/06/11 01:24:40;;;;;;;36.50;13.35;;;16.20;60.90;;;;;;4973155;28;20027;-89
2021/06/11 01:27:06;;;;;;;41.65;13.88;;;16.20;60.80;;;;;;4988859;28;20031;-89
2021/06/11 01:29:32;;;;;;;40.95;13.00;;;16.20;60.90;;;;;;4973318;28;20054;-89
2021/06/11 01:32:01;;;;;;;42.35;13.55;;;16.20;61.10;;;;;;4973896;28;20050;-90
2021/06/11 01:34:42;;;;;;;42.65;14.00;;;16.20;61.10;;;;;;4973932;28;20026;-89
2021/06/11 01:37:18;;;;;;;42.10;13.20;;;16.20;61.30;;;;;;4974461;28;20023;-91
2021/06/11 01:39:50;;;;;;;39.30;12.90;;;16.20;61.40;;;;;;4973198;28;20498;-90
2021/06/11 01:42:16;;;;;;;39.05;13.38;;;16.10;61.40;;;;;;4972913;28;20034;-90
2021/06/11 01:44:45;;;;;;;37.53;13.50;;;16.20;61.60;;;;;;4972920;28;20103;-90
2021/06/11 01:47:13;;;;;;;42.05;13.85;;;16.30;61.90;;;;;;4975510;28;20112;-88
2021/06/11 01:49:43;;;;;;;41.97;12.88;;;16.30;61.90;;;;;;4993595;28;20032;-87
2021/06/11 01:52:11;;;;;;;44.15;13.00;;;16.40;61.80;;;;;;4993301;28;20061;-87
2021/06/11 01:54:39;;;;;;;45.45;13.55;;;16.30;61.70;;;;;;4996871;28;20030;-88
2021/06/11 01:57:06;;;;;;;65.93;18.05;;;16.30;61.90;;;;;;4993565;28;20014;-90
2021/06/11 01:59:33;;;;;;;52.28;13.68;;;16.30;61.80;;;;;;4979833;28;20057;-90
2021/06/11 02:02:01;;;;;;;39.20;12.63;;;16.30;61.90;;;;;;4980103;28;20027;-90
2021/06/11 02:04:27;;;;;;;37.92;14.15;;;16.30;61.90;;;;;;4979714;28;20116;-90
2021/06/11 02:06:54;;;;;;;42.50;13.88;;;16.30;61.90;;;;;;4996298;28;20031;-90
2021/06/11 02:09:21;;;;;;;44.53;14.13;;;16.20;61.90;;;;;;4990623;28;20030;-90
2021/06/11 02:11:48;;;;;;;34.67;12.90;;;16.20;62.10;;;;;;4979579;28;20027;-90
2021/06/11 02:14:15;;;;;;;30.40;12.40;;;16.30;62.30;;;;;;4979399;28;20030;-89
2021/06/11 02:16:44;;;;;;;32.63;11.95;;;16.10;62.30;;;;;;4979314;28;20497;-89
2021/06/11 02:19:11;;;;;;;32.63;12.23;;;16.20;62.40;;;;;;4979536;28;20049;-89
2021/06/11 02:21:39;;;;;;;33.33;12.05;;;16.20;62.40;;;;;;4996596;28;20014;-89
2021/06/11 02:24:07;;;;;;;31.58;12.18;;;16.20;62.70;;;;;;4996730;28;20023;-88
2021/06/11 02:26:33;;;;;;;26.55;10.70;;;16.20;62.60;;;;;;4996652;28;20033;-89
2021/06/11 02:28:59;;;;;;;29.85;12.20;;;16.20;62.40;;;;;;4978866;28;20030;-88
2021/06/11 02:31:26;;;;;;;27.85;11.38;;;16.20;62.70;;;;;;4979357;28;20031;-88
2021/06/11 02:33:52;;;;;;;31.25;12.13;;;16.20;62.80;;;;;;4987434;28;20058;-89
2021/06/11 02:36:18;;;;;;;32.55;12.77;;;16.20;62.90;;;;;;4997335;28;20022;-89
2021/06/11 02:38:43;;;;;;;29.08;12.07;;;16.20;62.90;;;;;;4996440;28;20105;-89
2021/06/11 02:41:13;;;;;;;27.40;11.88;;;16.20;62.80;;;;;;4979307;28;20026;-89
2021/06/11 02:43:41;;;;;;;27.50;11.63;;;16.20;63.10;;;;;;4978756;28;20425;-89
2021/06/11 02:46:24;;;;;;;28.33;10.68;;;16.20;63.20;;;;;;4978807;28;20442;-88
2021/06/11 02:48:56;;;;;;;30.50;12.07;;;16.20;63.10;;;;;;4978596;28;20053;-89
2021/06/11 02:51:43;;;;;;;29.67;11.20;;;16.10;63.00;;;;;;4996789;28;20021;-92
2021/06/11 02:54:13;;;;;;;31.58;10.93;;;16.10;63.10;;;;;;4979551;28;20037;-91
2021/06/11 02:56:44;;;;;;;30.52;11.90;;;15.90;63.10;;;;;;4979409;28;20096;-92
2021/06/11 02:59:39;;;;;;;35.47;12.73;;;16.10;63.30;;;;;;4979667;28;20068;-91
2021/06/11 03:02:09;;;;;;;35.20;13.23;;;16.10;63.50;;;;;;4977081;28;20031;-91
2021/06/11 03:04:39;;;;;;;34.47;13.65;;;16.10;63.50;;;;;;4978183;28;20499;-91
2021/06/11 03:07:05;;;;;;;33.70;13.30;;;16.10;63.50;;;;;;4978190;28;20027;-89
2021/06/11 03:09:34;;;;;;;34.72;13.45;;;16.10;63.60;;;;;;4978620;28;20129;-89
2021/06/11 03:12:02;;;;;;;37.97;14.15;;;16.10;63.70;;;;;;4985613;28;20482;-89
2021/06/11 03:14:29;;;;;;;38.30;14.20;;;16.10;63.70;;;;;;4978791;28;20034;-88
2021/06/11 03:16:59;;;;;;;44.17;13.73;;;16.10;63.90;;;;;;4978817;28;20391;-89
2021/06/11 03:19:29;;;;;;;44.30;15.15;;;16.20;64.00;;;;;;4982906;28;20037;-89
2021/06/11 03:22:02;;;;;;;42.88;14.88;;;16.10;64.10;;;;;;4995690;28;20027;-89
2021/06/11 03:24:33;;;;;;;39.40;13.18;;;16.20;64.30;;;;;;4995350;28;20034;-89
2021/06/11 03:27:10;;;;;;;41.83;14.15;;;16.00;64.00;;;;;;4995489;28;20028;-89
2021/06/11 03:29:41;;;;;;;54.75;15.85;;;16.20;64.30;;;;;;4995633;28;20076;-90
2021/06/11 03:32:12;;;;;;;33.35;12.93;;;16.10;64.00;;;;;;4978004;28;20027;-91
2021/06/11 03:34:43;;;;;;;32.22;13.07;;;16.30;64.50;;;;;;4978483;28;20081;-92
2021/06/11 03:37:17;;;;;;;39.25;13.45;;;16.20;64.40;;;;;;4978230;28;20467;-92
2021/06/11 03:39:50;;;;;;;44.78;13.90;;;16.30;64.60;;;;;;4978664;28;20026;-91
2021/06/11 03:42:17;;;;;;;41.78;14.27;;;16.20;64.50;;;;;;4978872;28;20026;-91
2021/06/11 03:44:47;;;;;;;37.67;12.57;;;16.30;64.60;;;;;;4978615;28;20113;-91
2021/06/11 03:47:15;;;;;;;35.05;12.75;;;16.30;64.80;;;;;;4977529;28;20042;-91
2021/06/11 03:49:43;;;;;;;65.05;15.13;;;16.40;64.80;;;;;;4978241;28;20022;-91
2021/06/11 03:52:11;;;;;;;46.05;13.13;;;16.40;64.70;;;;;;4978285;28;20045;-93
2021/06/11 03:54:45;;;;;;;40.65;12.40;;;16.40;65.60;;;;;;4978426;28;20479;-93
2021/06/11 03:57:12;;;;;;;45.47;12.93;;;16.40;65.00;;;;;;4978576;28;20019;-93
2021/06/11 03:59:40;;;;;;;46.53;13.38;;;16.40;65.10;;;;;;4985461;28;20049;-93
2021/06/11 04:02:19;;;;;;;49.90;13.75;;;16.50;65.20;;;;;;4990130;28;20058;-94
2021/06/11 04:04:45;;;;;;;41.40;13.80;;;16.50;65.20;;;;;;4978848;28;20042;-95
2021/06/11 04:07:28;;;;;;;47.95;13.60;;;16.50;65.30;;;;;;4978171;28;20023;-89
2021/06/11 04:10:02;;;;;;;48.17;14.50;;;16.60;65.60;;;;;;4996979;28;20113;-87
2021/06/11 04:12:42;;;;;;;63.40;13.82;;;16.60;65.60;;;;;;4976900;28;20529;-87
2021/06/11 04:15:11;;;;;;;46.65;12.98;;;16.60;65.60;;;;;;4976910;28;20136;-87
2021/06/11 04:17:42;;;;;;;29.70;11.60;;;16.70;65.60;;;;;;4975824;28;20383;-87
2021/06/11 04:20:21;;;;;;;32.60;12.20;;;16.60;65.50;;;;;;4977226;28;20026;-87
2021/06/11 04:22:49;;;;;;;35.00;11.68;;;16.70;65.70;;;;;;4994688;28;20052;-87
2021/06/11 04:25:17;;;;;;;34.45;11.43;;;16.70;65.70;;;;;;4994036;28;20124;-87
2021/06/11 04:27:44;;;;;;;27.38;10.88;;;16.70;65.60;;;;;;4977163;28;20490;-87
2021/06/11 04:30:15;;;;;;;34.22;12.77;;;16.70;65.70;;;;;;4976645;28;20382;-87
2021/06/11 04:32:41;;;;;;;31.27;11.25;;;16.70;65.90;;;;;;4997439;28;20087;-87
2021/06/11 04:35:08;;;;;;;35.20;12.27;;;16.70;65.70;;;;;;5003300;28;20026;-87
2021/06/11 04:37:36;;;;;;;22.83;10.70;;;16.80;65.80;;;;;;4976268;28;20026;-87
2021/06/11 04:40:03;;;;;;;23.83;10.00;;;16.80;65.90;;;;;;4995488;28;20019;-87
2021/06/11 04:42:29;;;;;;;41.63;11.88;;;16.80;66.20;;;;;;4995969;28;20045;-86
2021/06/11 04:44:57;;;;;;;25.80;11.27;;;17.00;66.10;;;;;;4993786;28;20482;-87
2021/06/11 04:47:22;;;;;;;26.17;11.95;;;16.90;66.30;;;;;;4993405;28;20045;-86
2021/06/11 04:49:48;;;;;;;32.92;14.10;;;17.00;66.40;;;;;;4993862;28;20031;-88
2021/06/11 04:52:13;;;;;;;26.85;11.75;;;17.10;66.60;;;;;;4976337;28;20169;-87
2021/06/11 04:54:39;;;;;;;37.53;12.25;;;17.10;66.40;;;;;;4994085;28;20038;-87
2021/06/11 04:57:05;;;;;;;21.92;9.88;;;17.10;66.30;;;;;;4993156;28;20022;-87
2021/06/11 04:59:31;;;;;;;22.23;10.93;;;17.10;66.50;;;;;;4993790;28;20101;-87
2021/06/11 05:01:57;;;;;;;32.45;10.15;;;17.20;66.90;;;;;;4984313;28;20121;-87
2021/06/11 05:04:23;;;;;;;16.80;9.52;;;17.30;66.50;;;;;;4992674;28;20033;-87
2021/06/11 05:06:50;;;;;;;38.25;10.77;;;17.30;66.60;;;;;;4994598;28;20066;-87
2021/06/11 05:09:15;;;;;;;22.75;12.02;;;17.30;66.80;;;;;;4994003;28;20382;-87
2021/06/11 05:11:41;;;;;;;18.40;10.88;;;17.30;66.80;;;;;;5000291;28;20030;-87
2021/06/11 05:14:06;;;;;;;19.88;10.00;;;17.50;67.00;;;;;;4997168;28;20030;-87
2021/06/11 05:16:32;;;;;;;19.80;10.73;;;17.50;66.60;;;;;;4983965;28;20498;-86
2021/06/11 05:18:58;;;;;;;22.00;12.07;;;17.50;66.90;;;;;;4998907;28;20101;-88
2021/06/11 05:21:34;;;;;;;20.80;11.20;;;17.60;67.40;;;;;;4993714;28;20133;-87
2021/06/11 05:23:59;;;;;;;20.42;11.05;;;17.70;67.50;;;;;;4994289;28;20053;-90
2021/06/11 05:26:25;;;;;;;25.30;11.77;;;17.90;67.60;;;;;;4981134;28;20470;-89
2021/06/11 05:28:51;;;;;;;27.90;11.75;;;17.90;67.40;;;;;;4979345;28;20031;-90
2021/06/11 05:31:17;;;;;;;19.90;11.20;;;18.00;67.50;;;;;;4977614;28;20019;-91
2021/06/11 05:33:42;;;;;;;17.75;10.48;;;18.10;67.30;;;;;;4978786;28;20062;-91
2021/06/11 05:36:08;;;;;;;16.30;10.35;;;18.00;66.70;;;;;;4977700;28;20026;-92
2021/06/11 05:38:33;;;;;;;20.70;10.50;;;18.00;67.10;;;;;;4977318;28;20386;-90
2021/06/11 05:41:01;;;;;;;19.92;11.57;;;18.10;67.20;;;;;;4981271;28;20030;-88
2021/06/11 05:43:27;;;;;;;21.35;11.63;;;18.10;67.50;;;;;;4976493;28;20470;-94
2021/06/11 05:45:55;;;;;;;25.83;11.82;;;18.20;68.00;;;;;;4993500;28;20037;-88
2021/06/11 05:48:37;;;;;;;20.15;11.30;;;18.40;68.40;;;;;;4987887;28;20063;-87
2021/06/11 05:51:06;;;;;;;21.30;10.70;;;18.50;68.10;;;;;;4987586;28;20030;-85
2021/06/11 05:53:31;;;;;;;19.08;10.25;;;18.60;68.20;;;;;;4972780;28;20042;-87
2021/06/11 05:55:57;;;;;;;17.70;10.98;;;18.70;68.20;;;;;;4973664;28;20023;-84
2021/06/11 05:58:23;;;;;;;18.17;9.88;;;18.80;68.10;;;;;;4976232;28;20360;-82
2021/06/11 06:00:48;;;;;;;19.67;10.15;;;19.00;68.10;;;;;;4973251;28;20377;-82
2021/06/11 06:03:15;;;;;;;19.75;11.57;;;19.00;67.90;;;;;;4974396;28;20430;-83
2021/06/11 06:05:41;;;;;;;16.85;10.95;;;19.10;68.00;;;;;;4975384;28;20031;-83
2021/06/11 06:08:06;;;;;;;21.15;11.10;;;19.10;67.90;;;;;;4979948;28;20022;-86
2021/06/11 06:10:34;;;;;;;17.35;10.63;;;19.20;68.20;;;;;;4973740;28;20031;-83
2021/06/11 06:13:00;;;;;;;17.90;10.55;;;19.30;68.50;;;;;;4987915;28;20118;-83
2021/06/11 06:15:26;;;;;;;20.05;11.80;;;19.30;67.90;;;;;;4982719;28;20170;-84
2021/06/11 06:18:16;;;;;;;17.48;11.07;;;19.40;68.40;;;;;;4991355;28;20063;-85
2021/06/11 06:20:46;;;;;;;19.35;11.27;;;19.50;68.20;;;;;;4980252;28;20382;-87
2021/06/11 06:23:12;;;;;;;17.10;11.23;;;19.60;68.80;;;;;;4977287;28;20023;-86
2021/06/11 06:25:37;;;;;;;15.77;10.30;;;19.70;68.70;;;;;;4972371;28;20501;-86
2021/06/11 06:28:25;;;;;;;17.48;11.23;;;19.80;68.30;;;;;;4978598;28;20045;-85
2021/06/11 06:30:53;;;;;;;17.95;10.93;;;19.90;68.10;;;;;;4971628;28;20479;-84
2021/06/11 06:34:05;;;;;;;;;;;;;;;;;;;;;
2021/06/11 06:36:31;;;;;;;17.63;11.27;;;20.00;68.30;;;;;;4968992;28;20045;-85
2021/06/11 06:39:01;;;;;;;16.40;10.85;;;20.10;68.70;;;;;;4988196;28;20109;-85
2021/06/11 06:41:29;;;;;;;18.63;10.82;;;20.30;68.80;;;;;;4980329;28;20468;-86
2021/06/11 06:44:00;;;;;;;17.58;10.68;;;20.40;68.90;;;;;;4976445;28;20027;-86
2021/06/11 06:46:35;;;;;;;17.10;10.90;;;20.60;68.80;;;;;;4977089;28;20038;-86
2021/06/11 06:49:09;;;;;;;18.33;12.18;;;20.70;68.70;;;;;;4992465;28;20471;-87
2021/06/11 06:51:41;;;;;;;15.52;10.63;;;20.90;68.30;;;;;;4978582;28;20122;-87
2021/06/11 06:54:12;;;;;;;16.75;10.85;;;20.80;67.60;;;;;;4995649;28;20121;-86
2021/06/11 06:56:44;;;;;;;16.42;10.77;;;20.80;67.90;;;;;;4996054;28;20096;-90
2021/06/11 06:59:21;;;;;;;18.30;11.65;;;20.90;68.10;;;;;;4995603;28;20081;-88
2021/06/11 07:01:48;;;;;;;17.75;12.65;;;21.00;68.30;;;;;;4995673;28;20033;-86
2021/06/11 07:04:18;;;;;;;19.00;12.50;;;21.10;68.10;;;;;;4995220;28;20023;-86
2021/06/11 07:06:49;;;;;;;17.67;11.90;;;21.00;68.10;;;;;;4989471;28;20474;-86
2021/06/11 07:09:15;;;;;;;17.92;11.82;;;21.20;68.50;;;;;;4979236;28;20030;-84
2021/06/11 07:11:41;;;;;;;18.73;12.05;;;21.20;68.40;;;;;;4995785;28;20490;-85
2021/06/11 07:14:07;;;;;;;18.48;12.05;;;21.30;68.00;;;;;;4995039;28;20073;-85
2021/06/11 07:17:14;;;;;;;19.05;11.88;;;21.30;67.60;;;;;;4995825;28;20019;-87
2021/06/11 07:19:40;;;;;;;19.20;12.50;;;21.20;67.20;;;;;;4992798;28;20037;-84
2021/06/11 07:22:07;;;;;;;19.63;14.25;;;21.10;67.20;;;;;;4978206;28;20399;-85
2021/06/11 07:24:36;;;;;;;17.98;12.85;;;21.00;67.20;;;;;;4995121;28;20084;-87
2021/06/11 07:27:13;;;;;;;19.63;13.32;;;20.90;67.50;;;;;;4977588;28;20451;-87
2021/06/11 07:29:43;;;;;;;19.38;13.23;;;20.80;68.10;;;;;;4994047;28;20125;-84
2021/06/11 07:32:14;;;;;;;18.00;13.13;;;20.90;68.10;;;;;;4977674;28;20022;-85
2021/06/11 07:34:40;;;;;;;18.70;13.25;;;20.90;67.90;;;;;;4982682;28;20129;-84
2021/06/11 07:37:06;;;;;;;17.00;12.55;;;20.90;68.80;;;;;;4977517;28;20530;-84
2021/06/11 07:39:33;;;;;;;17.73;13.02;;;20.90;67.80;;;;;;4995062;28;20030;-82
2021/06/11 07:42:00;;;;;;;18.40;13.63;;;20.90;67.80;;;;;;4995820;28;20019;-83
2021/06/11 07:44:26;;;;;;;20.05;13.10;;;20.90;68.30;;;;;;4994805;28;20026;-83
2021/06/11 07:46:52;;;;;;;21.17;12.68;;;20.90;68.10;;;;;;4990545;28;20475;-83
2021/06/11 07:49:18;;;;;;;18.13;13.35;;;20.80;67.60;;;;;;4994615;28;20042;-84
2021/06/11 07:51:44;;;;;;;19.02;13.20;;;20.70;67.70;;;;;;4977614;28;20026;-83
2021/06/11 07:54:10;;;;;;;17.52;12.05;;;20.70;67.80;;;;;;4994663;28;20042;-87
2021/06/11 07:56:38;;;;;;;19.63;13.43;;;20.70;68.10;;;;;;4995304;28;20371;-87
2021/06/11 07:59:04;;;;;;;18.65;12.95;;;20.70;68.30;;;;;;4994516;28;20046;-87
2021/06/11 08:01:34;;;;;;;18.05;13.07;;;20.70;68.40;;;;;;4999646;28;20117;-87
2021/06/11 08:04:01;;;;;;;18.67;13.80;;;20.70;68.40;;;;;;4992441;28;20026;-86
2021/06/11 08:06:27;;;;;;;19.60;14.15;;;20.70;68.40;;;;;;4994367;28;20045;-85
2021/06/11 08:08:54;;;;;;;18.80;13.48;;;20.70;68.80;;;;;;4976920;28;20034;-84
2021/06/11 08:11:20;;;;;;;20.20;14.85;;;20.80;69.20;;;;;;4997388;28;20030;-84
2021/06/11 08:13:45;;;;;;;17.40;12.95;;;20.90;69.30;;;;;;5002648;28;20364;-84
2021/06/11 08:16:11;;;;;;;17.60;12.13;;;20.90;68.90;;;;;;4994544;28;20029;-85
2021/06/11 08:18:37;;;;;;;17.13;11.98;;;21.00;69.00;;;;;;4995395;28;20099;-85
2021/06/11 08:21:08;;;;;;;19.33;13.10;;;21.00;68.90;;;;;;4999615;28;20026;-85
2021/06/11 08:23:33;;;;;;;15.93;10.93;;;21.00;68.80;;;;;;4994315;28;20105;-89
2021/06/11 08:25:59;;;;;;;15.00;10.95;;;21.10;68.80;;;;;;4994270;28;20058;-85
2021/06/11 08:28:28;;;;;;;18.27;11.60;;;21.00;69.00;;;;;;4993904;28;20031;-87
2021/06/11 08:30:53;;;;;;;17.20;11.30;;;21.10;69.10;;;;;;4977649;28;20129;-88
2021/06/11 08:33:21;;;;;;;16.33;11.15;;;21.20;69.30;;;;;;4977553;28;20499;-85
2021/06/11 08:35:47;;;;;;;14.52;10.38;;;21.30;69.50;;;;;;4980131;28;20041;-86
2021/06/11 08:38:13;;;;;;;14.30;9.93;;;21.40;69.50;;;;;;4995973;28;20022;-85
2021/06/11 08:40:39;;;;;;;15.35;10.45;;;21.40;69.60;;;;;;4981479;28;20505;-85
2021/06/11 08:43:06;;;;;;;13.85;9.80;;;21.50;69.50;;;;;;4993894;28;20378;-85
2021/06/11 08:45:32;;;;;;;15.15;10.75;;;21.60;69.40;;;;;;4994144;28;20081;-86
2021/06/11 08:48:01;;;;;;;15.10;9.88;;;21.70;69.90;;;;;;4972735;28;20399;-86
2021/06/11 08:50:32;;;;;;;20.30;9.52;;;21.80;70.20;;;;;;4972654;28;20042;-86
2021/06/11 08:53:03;;;;;;;13.27;8.98;;;21.90;69.80;;;;;;4972424;28;20026;-86
2021/06/11 08:55:32;;;;;;;12.88;8.20;;;22.00;69.70;;;;;;4973312;28;20035;-86
2021/06/11 08:58:01;;;;;;;13.48;9.10;;;22.10;69.70;;;;;;4972714;28;21041;-85
2021/06/11 09:00:28;;;;;;;13.13;8.50;;;22.20;69.90;;;;;;4981856;28;20023;-86
2021/06/11 09:03:11;;;;;;;11.80;8.18;;;22.30;69.80;;;;;;4972621;28;20026;-86
2021/06/11 09:05:41;;;;;;;13.13;9.10;;;22.40;69.80;;;;;;4972576;28;20540;-86
2021/06/11 09:08:19;;;;;;;11.52;7.55;;;22.50;70.00;;;;;;4972834;28;20031;-86
2021/06/11 09:11:02;;;;;;;11.02;6.63;;;22.60;69.80;;;;;;4972673;28;20038;-85
2021/06/11 09:13:51;;;;;;;12.07;7.95;;;;;;;;;;4972659;28;20019;-86
2021/06/11 09:16:28;;;;;;;11.40;6.78;;;;;;;;;;4966321;28;20050;-86
2021/06/11 09:19:05;;;;;;;11.25;7.05;;;;;;;;;;4972752;28;20019;-86
2021/06/11 09:21:35;;;;;;;13.10;6.72;;;;;;;;;;4972649;28;20034;-86
2021/06/11 09:24:24;;;;;;;12.40;7.57;;;;;;;;;;4973898;28;20015;-86
2021/06/11 09:27:12;;;;;;;10.77;6.78;;;;;;;;;;4972699;28;20416;-85
2021/06/11 09:29:42;;;;;;;12.98;6.90;;;;;;;;;;4972738;28;20451;-85
2021/06/11 09:32:19;;;;;;;12.18;6.05;;;;;;;;;;4972869;28;20464;-89
2021/06/11 09:34:51;;;;;;;11.05;5.70;;;;;;;;;;4974176;28;20472;-86
2021/06/11 09:37:25;;;;;;;9.23;5.55;;;;;;;;;;4973318;28;20022;-86
2021/06/11 09:39:51;;;;;;;8.82;4.80;;;;;;;;;;4972224;28;20034;-85
2021/06/11 09:42:49;;;;;;;;;;;;;;;;;;;;;
2021/06/11 09:45:18;;;;;;;10.32;5.25;;;;;;;;;;4973780;28;20023;-86
2021/06/11 09:47:56;;;;;;;9.57;5.90;;;;;;;;;;4974839;28;20085;-86
2021/06/11 09:50:39;;;;;;;9.85;5.60;;;;;;;;;;4975690;28;20129;-86
2021/06/11 09:53:05;;;;;;;9.88;5.65;;;;;;;;;;4992678;28;20030;-86
2021/06/11 09:55:51;;;;;;;9.48;4.80;;;;;;;;;;4993107;28;20474;-86
2021/06/11 09:58:17;;;;;;;8.90;5.15;;;;;;;;;;4975685;28;20105;-86
2021/06/11 10:01:00;;;;;;;11.20;6.35;;;;;;;;;;4975137;28;20184;-86
2021/06/11 10:03:29;;;;;;;11.10;5.75;;;;;;;;;;4975371;28;20053;-87
2021/06/11 10:05:56;;;;;;;9.10;5.22;;;;;;;;;;4994111;28;20030;-86
2021/06/11 10:09:07;;;;;;;13.20;6.47;;;;;;;;;;4982105;28;20030;-88
2021/06/11 10:11:33;;;;;;;11.18;7.13;;;;;;;;;;4990932;28;20045;-90
2021/06/11 10:17:19;;;;;;;10.37;6.30;;;;;;;;;;4955328;29;20515;-89
2021/06/11 10:20:08;;;;;;;8.88;5.38;;;;;;;;;;4955807;29;20039;-87
2021/06/11 10:22:55;;;;;;;9.57;5.45;;;;;;;;;;4977746;28;20422;-88
2021/06/11 10:44:27;;;;;;;9.07;5.00;;;;;;;;;;4932706;29;20509;-91
2021/06/11 10:46:56;;;;;;;;;;;;;;;;;;4921500;29;20144;-91
2021/06/11 11:04:15;;;;;;;8.10;4.57;;;;;;;;;;5086929;23;20427;-88
2021/06/11 11:15:30;;;;;;;9.25;4.00;;;;;;;;;;4931063;23;20119;-94
2021/06/11 11:17:58;;;;;;;7.65;4.25;;;;;;;;;;4938524;29;20051;-88
2021/06/11 11:20:29;;;;;;;7.70;4.50;;;;;;;;;;4939955;29;20028;-90
2021/06/11 11:26:35;;;;;;;7.38;3.58;;;;;;;;;;4936786;29;20396;-89
2021/06/11 11:29:01;;;;;;;6.97;3.63;;;;;;;;;;4923792;29;20039;-89
2021/06/11 11:31:27;;;;;;;8.77;3.85;;;;;;;;;;4938388;29;20096;-91
2021/06/11 11:37:01;;;;;;;6.45;3.60;;;;;;;;;;4926191;29;20035;-86
2021/06/11 11:39:27;;;;;;;6.68;3.40;;;;;;;;;;4937054;29;20032;-86
2021/06/11 11:41:56;;;;;;;6.35;3.47;;;;;;;;;;4937409;29;20039;-86
2021/06/11 11:44:22;;;;;;;6.07;3.30;;;;;;;;;;4937079;29;20030;-86
2021/06/11 11:46:48;;;;;;;7.13;3.50;;;;;;;;;;4937248;29;20028;-86
2021/06/11 11:49:14;;;;;;;6.72;3.20;;;;;;;;;;4937019;29;20115;-86
2021/06/11 11:51:40;;;;;;;6.57;3.45;;;;;;;;;;4936558;29;20497;-86
2021/06/11 11:54:06;;;;;;;5.13;2.92;;;;;;;;;;4937178;29;20075;-86
2021/06/11 11:56:32;;;;;;;5.68;3.35;;;;;;;;;;4937025;29;20483;-86
2021/06/11 11:58:58;;;;;;;5.68;3.00;;;;;;;;;;4936719;29;20028;-86
2021/06/11 12:01:24;;;;;;;6.03;3.40;;;;;;;;;;4936733;29;20035;-86
2021/06/11 12:03:50;;;;;;;8.65;3.55;;;;;;;;;;4936799;29;20024;-86
2021/06/11 12:06:16;;;;;;;5.95;3.40;;;;;;;;;;4937543;29;20024;-87
2021/06/11 12:08:42;;;;;;;6.30;3.67;;;;;;;;;;4936997;29;20095;-86
2021/06/11 12:11:08;;;;;;;6.43;3.50;;;;;;;;;;4936515;29;20023;-86
2021/06/11 12:13:34;;;;;;;5.75;3.35;;;;;;;;;;4936468;29;20353;-86
2021/06/11 12:16:02;;;;;;;6.35;3.60;;;;;;;;;;4936601;29;20056;-86
2021/06/11 12:18:29;;;;;;;6.57;3.40;;;;;;;;;;4936552;29;20016;-86
2021/06/11 12:20:55;;;;;;;6.30;3.58;;;;;;;;;;4936769;29;20031;-87
2021/06/11 12:23:21;;;;;;;5.65;3.40;;;;;;;;;;4936501;29;20027;-86
2021/06/11 12:25:47;;;;;;;5.70;3.22;;;;;;;;;;4936386;29;20024;-87
2021/06/11 12:28:13;;;;;;;5.18;3.30;;;;;;;;;;4936454;29;20028;-87
2021/06/11 12:30:39;;;;;;;5.82;3.25;;;;;;;;;;4936550;29;20068;-86
2021/06/11 12:33:05;;;;;;;4.32;2.85;;;;;;;;;;4936986;29;20048;-87
2021/06/11 12:35:31;;;;;;;5.78;2.95;;;;;;;;;;4936356;29;20039;-87
2021/06/11 12:37:59;;;;;;;5.90;3.17;;;;;;;;;;4935773;29;20118;-86
2021/06/11 12:40:25;;;;;;;6.50;2.78;;;;;;;;;;4935852;29;20047;-86
2021/06/11 12:42:53;;;;;;;4.55;2.80;;;;;;;;;;4936329;29;20059;-86
2021/06/11 12:45:19;;;;;;;11.60;10.43;;;;;;;;;;4935821;29;20023;-87
2021/06/11 12:47:45;;;;;;;4.70;2.72;;;;;;;;;;4935943;29;20055;-86
2021/06/11 12:50:12;;;;;;;3.83;2.72;;;;;;;;;;4936602;29;20405;-87
2021/06/11 12:52:38;;;;;;;4.45;2.90;;;;;;;;;;4935907;29;20046;-87
2021/06/11 12:55:04;;;;;;;4.95;2.90;;;;;;;;;;4936109;29;20031;-87
2021/06/11 12:57:30;;;;;;;3.90;2.92;;;;;;;;;;4936316;29;20029;-87
2021/06/11 12:59:57;;;;;;;6.28;4.25;;;;;;;;;;4938868;29;20470;-87
2021/06/11 13:02:23;;;;;;;3.33;2.40;;;;;;;;;;4936255;29;20020;-87
2021/06/11 13:04:49;;;;;;;3.88;2.90;;;;;;;;;;4935876;29;20024;-87
2021/06/11 13:07:15;;;;;;;6.90;2.90;;;;;;;;;;4935867;29;20039;-87
2021/06/11 13:09:42;;;;;;;3.75;2.67;;;;;;;;;;4935458;29;20020;-87
2021/06/11 13:12:08;;;;;;;3.45;2.60;;;;;;;;;;4936027;29;20034;-87
2021/06/11 13:14:34;;;;;;;3.55;2.50;;;;;;;;;;4935823;29;20031;-87
2021/06/11 13:17:00;;;;;;;3.47;2.55;;;;;;;;;;4936120;29;20111;-87
2021/06/11 13:19:26;;;;;;;3.10;2.58;;;;;;;;;;4935884;29;20167;-87
2021/06/11 13:21:52;;;;;;;4.80;3.10;;;;;;;;;;4935723;29;20114;-87
2021/06/11 13:24:19;;;;;;;3.63;2.60;;;;;;;;;;4936204;29;20024;-85
2021/06/11 13:26:45;;;;;;;3.58;2.80;;;;;;;;;;4935753;29;20024;-86
2021/06/11 13:29:11;;;;;;;4.22;2.83;;;;;;;;;;4935721;29;20024;-85
2021/06/11 13:31:38;;;;;;;3.97;2.90;;;;;;;;;;4935544;29;20117;-86
2021/06/11 13:34:04;;;;;;;4.60;3.00;;;;;;;;;;4935694;29;20028;-86
2021/06/11 13:36:30;;;;;;;4.03;3.20;;;;;;;;;;4935551;29;20499;-86
2021/06/11 13:38:57;;;;;;;3.45;3.03;;;;;;;;;;4935631;29;20398;-86
2021/06/11 13:41:24;;;;;;;4.60;3.13;;;;;;;;;;4934949;29;20026;-86
2021/06/11 13:43:51;;;;;;;4.28;3.20;;;;;;;;;;4935368;29;20027;-86
2021/06/11 13:46:17;;;;;;;4.60;3.17;;;;;;;;;;4935670;29;20114;-85
2021/06/11 13:48:44;;;;;;;5.82;3.97;;;;;;;;;;4936001;29;20067;-86
2021/06/11 13:51:10;;;;;;;3.85;3.20;;;;;;;;;;4939842;29;20024;-86
2021/06/11 13:53:36;;;;;;;4.05;3.30;;;;;;;;;;4939748;29;20441;-85
2021/06/11 13:56:02;;;;;;;4.18;3.30;;;;;;;;;;4940328;29;20054;-85
2021/06/11 13:58:28;;;;;;;3.40;3.05;;;;;;;;;;4945401;29;20074;-86
2021/06/11 14:00:55;;;;;;;4.45;3.10;;;;;;;;;;4943290;29;20035;-86
2021/06/11 14:03:21;;;;;;;3.65;3.00;;;;;;;;;;4939398;29;20016;-86
2021/06/11 14:05:47;;;;;;;4.38;3.25;;;;;;;;;;4939134;29;20400;-86
2021/06/11 14:08:13;;;;;;;4.32;3.40;;;;;;;;;;4941267;29;20020;-86
2021/06/11 14:10:40;;;;;;;5.03;3.47;;;;;;;;;;4939224;29;20039;-87